VGEG/CGP METAR and TAF weather

Enter ICAO airport designator
Station Type Date Time Source
VGEG METAR 2022/01/18 08:00 UTC NOAA

VGEG 180800Z 00000KT 3500 HZ FEW018 SCT100 25/17 Q1012 NOSIG


Station Type Date Time Source
VGEG Decoded METAR 2022/01/18 08:00 UTC NOAA

Chittagong Patenga , Bangladesh (VGEG) 22-16N 091-49E 6M
Jan 18, 2022 - 03:00 AM EST / 2022.01.18 0800 UTC
Wind: Calm:0
Visibility: 2 mile(s):0
Sky conditions: partly cloudy
Weather: haze
Temperature: 77 F (25 C)
Dew Point: 62 F (17 C)
Relative Humidity: 61%
Pressure (altimeter): 29.88 in. Hg (1012 hPa)
ob: VGEG 180800Z 00000KT 3500 HZ FEW018 SCT100 25/17 Q1012 NOSIG
cycle: 8

Station Type Date Time Source
VGEG TAF 2022/01/18 06:06 UTC NOAA

TAF VGEG 180500Z 1806/1912 30008KT 5000 HZ FEW018
BECMG 1810/1812 33006KT 3500 HZ SCT013
TEMPO 1818/1903 00000KT 0200 FG SCT012
BECMG 1903/1905 05005KT 3200 HZ FEW016
BECMG 1910/1912 30005KT 3400 HZ FEW015

Example: see airport list